Burlington Piers

CWWB · Ontario, Kanada

METAR-Geschichte CWWB · Burlington Piers

Unten siehst du die METARs der letzten paar Tage. Wähle ein Jahr, um ältere METARs ab dem Jahr 2007 zu durchsuchen.

29. Mai 2024

Uhrzeit Code Wetter Temp. Sichtweite Wolkendecke Wind METAR/SPECI
12:53
V
20 °C 10 mi - 350° 350° 13 kt METAR KIAG 291653Z 35013KT 10SM SCT026 SCT060 20/12 A2999 RMK AO2 SLP154 T02000122
11:53
V
19 °C 10 mi - Var Var 5 kt METAR KIAG 291553Z VRB05KT 10SM FEW022 19/13 A3000 RMK AO2 SLP157 T01940128
11:40
V
19 °C 10 mi - 050° 050° 7 kt METAR KIAG 291540Z 05007KT 010V070 10SM SCT022 19/13 A2999 RMK AO2 T01940133
10:53
M
18 °C 10 mi 1.900 ft 040° 040° 3 kt METAR KIAG 291453Z 04003KT 10SM BKN019 BKN024 18/12 A2999 RMK AO2 SLP157 T01830122 50009
10:43
M
19 °C 10 mi 1.700 ft 360° 360° 6 kt METAR KIAG 291443Z 36006KT 10SM BKN017 BKN024 BKN070 19/13 A2999 RMK AO2 T01890128
10:07
V
18 °C 10 mi 7.000 ft 070° 070° 7 kt METAR KIAG 291407Z 07007KT 10SM FEW015 SCT039 OVC070 18/13 A2999 RMK AO2 T01780128
10:00
M
18 °C 10 mi 2.400 ft 070° 070° 5 kt METAR KIAG 291400Z 07005KT 10SM SCT015 BKN024 OVC070 18/13 A2999 RMK AO2 T01780128
09:53
V
18 °C 10 mi 3.700 ft 060° 060° 5 kt METAR KIAG 291353Z 06005KT 10SM SCT015 SCT024 OVC037 18/13 A2999 RMK AO2 SLP158 T01780133
09:43
M
17 °C 10 mi 2.400 ft 040° 040° 6 kt METAR KIAG 291343Z 04006KT 10SM SCT015 BKN024 OVC043 17/12 A2999 RMK AO2 T01670122
08:53
V
16 °C 10 mi 3.100 ft 050° 050° 7 kt METAR KIAG 291253Z 05007KT 10SM FEW012 BKN031 OVC039 16/12 A2998 RMK AO2 SLP154 T01610122
08:15
V
16 °C 10 mi 3.100 ft 070° 070° 6 kt METAR KIAG 291215Z 07006KT 10SM FEW008 OVC031 16/13 A2997 RMK AO2 T01560128
07:53
M
16 °C 10 mi 2.800 ft 030° 030° 4 kt METAR KIAG 291153Z 03004KT 10SM FEW006 OVC028 16/13 A2997 RMK AO2 SLP149 60021 70039 T01560128 10156 20133 51014
07:40
M
15 °C 9 mi 2.600 ft 040° 040° 5 kt METAR KIAG 291140Z 04005KT 9SM FEW005 OVC026 15/13 A2996 RMK AO2 T01500128
06:53
M
15 °C 8 mi 2.500 ft 340° 340° 3 kt METAR KIAG 291053Z 34003KT 8SM BKN025 BKN060 OVC110 15/13 A2995 RMK AO2 SLP145 T01500128
05:53
M
14 °C 7 mi 2.700 ft 330° 330° 5 kt METAR KIAG 290953Z AUTO 33005KT 7SM BKN027 BKN032 OVC044 14/12 A2994 RMK AO2 SLP140 T01440122
04:53
V
14 °C 10 mi 3.600 ft 260° 260° 3 kt METAR KIAG 290853Z AUTO 26003KT 10SM OVC036 14/12 A2992 RMK AO2 RAE49 SLP135 P0021 60021 T01390122 53005
04:35
V
14 °C 5 mi 3.700 ft 360° 360° 0 kt METAR KIAG 290835Z AUTO 00000KT 5SM -RA BR SCT026 OVC037 14/12 A2992 RMK AO2 P0021 T01390122
04:32
I
14 °C 1½ mi 2.600 ft 360° 360° 0 kt METAR KIAG 290832Z AUTO 00000KT 1 1/2SM R28R/5000VP6000FT -RA BR BKN026 OVC035 14/12 A2992 RMK AO2 P0021 T01390122
04:22
I
14 °C 1 mi 2.600 ft 360° 360° 0 kt METAR KIAG 290822Z AUTO 00000KT 1SM R28R/4000VP6000FT +RA BR BKN026 OVC036 14/13 A2992 RMK AO2 P0015 T01390128
03:53
M
14 °C 10 mi 2.600 ft 230° 230° 3 kt METAR KIAG 290753Z AUTO 23003KT 10SM -RA BKN026 BKN033 OVC042 14/12 A2992 RMK AO2 RAB51 SLP131 P0000 T01440122
03:34
M
14 °C 10 mi 2.600 ft 360° 360° 0 kt METAR KIAG 290734Z AUTO 00000KT 10SM BKN026 OVC041 14/12 A2992 RMK AO2 T01440122
02:53
V
14 °C 10 mi 6.000 ft 230° 230° 5 kt METAR KIAG 290653Z AUTO 23005KT 10SM SCT050 BKN060 OVC090 14/12 A2991 RMK AO2 SLP129 T01390122
01:53
V
14 °C 10 mi 5.000 ft 230° 230° 3 kt METAR KIAG 290553Z AUTO 23003KT 10SM FEW030 OVC050 14/13 A2991 RMK AO2 SLP128 60011 T01440128 10150 20144 58001
00:53
V
14 °C 10 mi 3.600 ft 210° 210° 5 kt METAR KIAG 290453Z AUTO 21005KT 10SM BKN036 OVC050 14/12 A2991 RMK AO2 RAB17E45 SLP129 P0006 T01440122 402000144
00:34
M
14 °C 4 mi 3.400 ft 240° 240° 6 kt METAR KIAG 290434Z AUTO 24006KT 4SM -RA BR SCT029 BKN034 OVC050 14/12 A2991 RMK AO2 RAB17 P0006 T01440122
00:28
I
14 °C 2 mi 2.900 ft 240° 240° 7 kt METAR KIAG 290428Z AUTO 24007KT 2SM +RA BR BKN029 OVC050 14/12 A2992 RMK AO2 RAB17 P0006 T01440122

28. Mai 2024

Uhrzeit Code Wetter Temp. Sichtweite Wolkendecke Wind METAR/SPECI
23:53
V
14 °C 10 mi 3.600 ft 240° 240° 6 kt METAR KIAG 290353Z AUTO 24006KT 10SM BKN036 OVC050 14/12 A2992 RMK AO2 SLP131 T01440122
22:53
V
15 °C 10 mi 3.700 ft 240° 240° 7 kt METAR KIAG 290253Z 24007KT 10SM OVC037 15/13 A2991 RMK AO2 SLP130 60005 T01500128 51011
21:53
V
14 °C 10 mi 4.600 ft 230° 230° 5 kt METAR KIAG 290153Z 23005KT 10SM BKN046 BKN110 14/13 A2991 RMK AO2 RAE32 SLP128 P0000 T01440128
20:53
V
14 °C 9 mi 8.500 ft 220° 220° 7 kt METAR KIAG 290053Z 22007KT 9SM -RA OVC085 14/12 A2989 RMK AO2 LTG DSNT SW SLP123 P0005 T01440122
19:53
M
15 °C 4 mi 4.900 ft 230° 230° 12 kt METAR KIAG 282353Z 23012KT 4SM RA FEW028 BKN049 OVC070 15/12 A2988 RMK AO2 LTG DSNT W RAB34 SLP119 P0005 60007 T01500122 10200 20150 53015
18:53
V
16 °C 10 mi 8.000 ft 210° 210° 6 kt METAR KIAG 282253Z 21006KT 10SM FEW065 BKN080 BKN100 16/13 A2986 RMK AO2 LTG DSNT W AND NW RAE39 SLP111 P0000 T01560133
17:53
V
16 °C 8 mi 8.500 ft 230° 230° 8 kt METAR KIAG 282153Z 23008KT 8SM -RA OVC085 16/13 A2985 RMK AO2 TSB07E22 SLP110 P0002 T01610128
17:28
V
16 °C 8 mi 8.500 ft 250° 250° 6 kt METAR KIAG 282128Z 25006KT 8SM -RA OVC085 16/13 A2984 RMK AO2 LTG DSNT SW AND W TSB07E22 P0001 T01610128
17:13
V
16 °C 10 mi 8.500 ft 250° 250° 5 kt METAR KIAG 282113Z 25005KT 10SM -TSRA OVC085 16/13 A2984 RMK AO2 LTG DSNT W TSB07 TS OVHD MOVING E P0001 T01610128
16:53
V
16 °C 5 mi 7.500 ft 300° 300° 11 kt METAR KIAG 282053Z 30011KT 5SM -RA OVC075 16/13 A2984 RMK AO2 LTG DSNT W AND NW RAB16 SLP104 P0000 60000 T01610128 53016
16:12
V
19 °C 10 mi 3.800 ft 320° 320° 11 - 20 kt METAR KIAG 282012Z 32011G20KT 10SM SCT030 OVC038 19/12 A2983 RMK AO2 LTG DSNT NW T01890122
15:53
M
19 °C 10 mi 2.500 ft 300° 300° 11 - 19 kt METAR KIAG 281953Z 30011G19KT 10SM BKN025 BKN032 OVC110 19/12 A2982 RMK AO2 SLP096 T01940122
14:53
M
19 °C 10 mi 2.700 ft 280° 280° 11 - 17 kt METAR KIAG 281853Z 28011G17KT 10SM BKN027 BKN035 OVC110 19/13 A2980 RMK AO2 SLP090 T01940128
14:07
M
19 °C 10 mi 2.900 ft 280° 280° 12 kt METAR KIAG 281807Z 28012KT 10SM SCT023 BKN029 OVC095 19/13 A2979 RMK AO2 T01940133
13:53
V
19 °C 10 mi 3.700 ft 270° 270° 10 - 18 kt METAR KIAG 281753Z 27010G18KT 10SM SCT029 BKN037 OVC080 19/13 A2979 RMK AO2 SLP087 T01940133 10200 20172 53003
13:27
V
19 °C 10 mi 3.300 ft 300° 300° 16 - 23 kt METAR KIAG 281727Z 30016G23KT 10SM SCT026 BKN033 OVC080 19/12 A2979 RMK AO2 T01940122
13:03
M
19 °C 10 mi 2.800 ft 300° 300° 15 - 22 kt METAR KIAG 281703Z 30015G22KT 10SM BKN028 BKN033 OVC110 19/12 A2978 RMK AO2 T01940122
12:53
V
20 °C 10 mi 9.000 ft 300° 300° 13 - 22 kt METAR KIAG 281653Z 30013G22KT 10SM VCTS FEW028 SCT070 BKN090 20/12 A2978 RMK AO2 SLP083 T02000122
11:53
V
19 °C 10 mi 8.500 ft 300° 300° 13 - 21 kt METAR KIAG 281553Z 30013G21KT 10SM FEW027 OVC085 19/13 A2978 RMK AO2 SLP084 T01890128
10:53
V
18 °C 10 mi 4.800 ft 300° 300° 11 - 19 kt METAR KIAG 281453Z 30011G19KT 10SM SCT037 BKN048 OVC060 18/12 A2977 RMK AO2 SLP079 T01830122 53015
10:28
V
19 °C 10 mi 3.600 ft 300° 300° 18 - 24 kt METAR KIAG 281428Z 30018G24KT 10SM SCT026 BKN036 19/12 A2976 RMK AO2 T01890117
09:53
M
18 °C 10 mi 2.400 ft 270° 270° 12 - 19 kt METAR KIAG 281353Z 27012G19KT 10SM OVC024 18/13 A2975 RMK AO2 SLP074 T01830128
08:53
M
18 °C 10 mi 1.800 ft 280° 280° 11 kt METAR KIAG 281253Z 28011KT 10SM BKN018 18/13 A2974 RMK AO2 SLP068 T01830128
07:53
M
17 °C 10 mi 1.700 ft 260° 260° 10 kt METAR KIAG 281153Z 26010KT 10SM BKN017 BKN070 OVC080 17/13 A2972 RMK AO2 SLP063 70014 T01720133 10172 20161 51018
07:35
M
17 °C 10 mi 1.700 ft 260° 260° 12 kt METAR KIAG 281135Z 26012KT 10SM BKN017 OVC055 17/13 A2972 RMK AO2 T01670128
06:53
V
17 °C 10 mi 4.700 ft 240° 240° 9 kt METAR KIAG 281053Z 24009KT 10SM OVC047 17/13 A2970 RMK AO2 SLP057 T01670128
05:53
V
16 °C 10 mi 3.400 ft 260° 260° 8 kt METAR KIAG 280953Z AUTO 26008KT 10SM BKN034 OVC055 16/13 A2969 RMK AO2 SLP051 T01610128
05:28
V
17 °C 10 mi 3.400 ft 270° 270° 12 kt METAR KIAG 280928Z AUTO 27012KT 10SM FEW015 OVC034 17/13 A2968 RMK AO2 T01670128
05:05
M
17 °C 10 mi 2.100 ft 270° 270° 12 kt METAR KIAG 280905Z AUTO 27012KT 10SM SCT017 BKN021 OVC070 17/13 A2967 RMK AO2 T01670128
04:53
M
17 °C 10 mi 1.400 ft 280° 280° 11 kt METAR KIAG 280853Z AUTO 28011KT 10SM BKN014 OVC022 17/13 A2967 RMK AO2 SLP044 T01670133 53008
04:34
M
17 °C 10 mi 1.400 ft 250° 250° 11 kt METAR KIAG 280834Z AUTO 25011KT 10SM BKN014 BKN019 OVC025 17/13 A2966 RMK AO2 T01670133
03:53
M
17 °C 10 mi 1.800 ft 240° 240° 11 kt METAR KIAG 280753Z AUTO 24011KT 10SM OVC018 17/13 A2965 RMK AO2 SLP035 T01720133
03:41
M
17 °C 10 mi 1.800 ft 240° 240° 13 kt METAR KIAG 280741Z AUTO 24013KT 10SM BKN018 OVC042 17/13 A2964 RMK AO2 T01720133
03:09
V
17 °C 10 mi 4.200 ft 230° 230° 12 kt METAR KIAG 280709Z AUTO 23012KT 10SM SCT018 BKN042 OVC065 17/13 A2964 RMK AO2 T01720133
02:53
M
17 °C 10 mi 1.700 ft 240° 240° 13 - 18 kt METAR KIAG 280653Z AUTO 24013G18KT 10SM BKN017 OVC040 17/13 A2964 RMK AO2 SLP035 T01720133
01:53
V
17 °C 10 mi 3.100 ft 240° 240° 13 kt METAR KIAG 280553Z AUTO 24013KT 10SM FEW015 OVC031 17/13 A2965 RMK AO2 SLP035 T01720133 10200 20172 50004
00:53
V
18 °C 10 mi 3.700 ft 250° 250° 15 - 23 kt METAR KIAG 280453Z AUTO 25015G23KT 10SM FEW017 FEW027 OVC037 18/13 A2965 RMK AO2 PK WND 24026/0432 SLP037 T01780133 402500178
00:37
V
18 °C 10 mi 3.500 ft 240° 240° 13 - 26 kt METAR KIAG 280437Z AUTO 24013G26KT 10SM FEW017 SCT029 OVC035 18/13 A2965 RMK AO2 PK WND 24026/0432 T01780133
00:07
M
18 °C 10 mi 1.700 ft 230° 230° 14 - 26 kt METAR KIAG 280407Z AUTO 23014G26KT 10SM BKN017 BKN022 OVC060 18/13 A2964 RMK AO2 PK WND 23026/0358 T01780133

27. Mai 2024

Uhrzeit Code Wetter Temp. Sichtweite Wolkendecke Wind METAR/SPECI
23:53
V
18 °C 10 mi 4.100 ft 240° 240° 14 - 23 kt METAR KIAG 280353Z AUTO 24014G23KT 10SM SCT019 BKN041 OVC060 18/13 A2964 RMK AO2 PK WND 24029/0259 SLP034 T01780133
22:53
V
18 °C 10 mi 5.500 ft 230° 230° 17 - 25 kt METAR KIAG 280253Z 23017G25KT 10SM OVC055 18/13 A2963 RMK AO2 PK WND 22031/0229 SLP032 T01780133 51021
21:53
V
18 °C 10 mi 4.800 ft 240° 240° 17 - 28 kt METAR KIAG 280153Z 24017G28KT 10SM SCT020 OVC048 18/13 A2962 RMK AO2 PK WND 24029/0107 SLP029 T01830133
20:53
V
19 °C 10 mi 4.400 ft 230° 230° 15 - 24 kt METAR KIAG 280053Z 23015G24KT 10SM SCT034 OVC044 19/13 A2960 RMK AO2 SLP021 T01890133
19:53
V
20 °C 10 mi - 220° 220° 15 - 23 kt METAR KIAG 272353Z 22015G23KT 10SM FEW043 20/13 A2957 RMK AO2 PK WND 21029/2257 SLP010 T02000133 10250 20200 53020
18:53
V
21 °C 10 mi 6.000 ft 220° 220° 19 - 28 kt METAR KIAG 272253Z 22019G28KT 10SM SCT048 BKN060 21/13 A2955 RMK AO2 PK WND 24029/2155 SLP002 T02060133
17:53
V
23 °C 10 mi 4.900 ft 230° 230° 15 - 25 kt METAR KIAG 272153Z 23015G25KT 10SM SCT039 BKN049 23/16 A2953 RMK AO2 PK WND 23031/2115 SLP994 T02280156
16:53
V
24 °C 10 mi - 240° 240° 17 - 31 kt METAR KIAG 272053Z 24017G31KT 10SM CLR 24/16 A2951 RMK AO2 PK WND 23031/2049 SLP988 T02440156 58003
15:53
V
25 °C 10 mi - 240° 240° 21 - 34 kt METAR KIAG 271953Z 24021G34KT 10SM FEW031 25/17 A2952 RMK AO2 PK WND 23035/1859 SLP990 T02500167
14:53
V
24 °C 10 mi - 240° 240° 24 - 35 kt METAR KIAG 271853Z 24024G35KT 10SM FEW026 FEW034 24/17 A2952 RMK AO2 PK WND 24039/1757 SLP991 T02390167
13:53
V
24 °C 10 mi 6.000 ft 240° 240° 25 - 39 kt METAR KIAG 271753Z 24025G39KT 10SM FEW029 SCT050 BKN060 24/17 A2952 RMK AO2 PK WND 23039/1750 SLP991 60014 T02440167 10244 20194 50007
12:53
V
21 °C 7 mi 3.400 ft 220° 220° 23 - 38 kt METAR KIAG 271653Z 22023G38KT 7SM FEW023 BKN034 OVC070 21/16 A2952 RMK AO2 PK WND 23038/1647 SLP994 T02110161
11:53
V
23 °C 10 mi 4.300 ft 210° 210° 13 - 25 kt METAR KIAG 271553Z 21013G25KT 10SM SCT034 BKN043 OVC055 23/17 A2951 RMK AO2 PK WND 19026/1526 SLP988 P0001 T02280172
10:53
V
22 °C 10 mi 11.000 ft 180° 180° 11 kt METAR KIAG 271453Z 18011KT 10SM SCT055 BKN110 22/18 A2950 RMK AO2 RAE23 SLP985 P0000 60013 T02170183 58019
10:07
V
20 °C 9 mi 7.500 ft 160° 160° 8 kt METAR KIAG 271407Z 16008KT 9SM -RA FEW036 BKN075 OVC110 20/18 A2952 RMK AO2 P0000 T02000178
10:00
I
20 °C 2½ mi 6.000 ft 170° 170° 7 kt METAR KIAG 271400Z 17007KT 2 1/2SM R28R/4000VP6000FT -RA BR SCT038 BKN060 OVC110 20/18 A2952 RMK AO2 P0000 T02000178
09:53
I
19 °C 1 mi 5.500 ft 170° 170° 8 kt METAR KIAG 271353Z 17008KT 1SM R28R/4000VP6000FT +RA BR FEW028 BKN055 OVC070 19/17 A2953 RMK AO2 SLP996 P0002 T01940172
08:53
M
19 °C 3 mi 4.600 ft 180° 180° 10 kt METAR KIAG 271253Z 18010KT 3SM -RA BR FEW028 FEW035 OVC046 19/17 A2956 RMK AO2 RAB20 SLP006 P0011 T01940172
08:37
M
19 °C 3 mi 4.600 ft 180° 180° 8 kt METAR KIAG 271237Z 18008KT 3SM -RA FEW027 SCT038 OVC046 19/17 A2955 RMK AO2 RAB20 P0011 T01940167
08:30
I
19 °C 1 mi 3.800 ft 180° 180° 10 kt METAR KIAG 271230Z 18010KT 1SM R28R/3500VP6000FT RA SCT027 BKN038 OVC049 19/16 A2956 RMK AO2 RAB20 P0011 T01940161
08:23
I
21 °C 1 mi 2.700 ft 180° 180° 10 kt METAR KIAG 271223Z 18010KT 1SM R28R/3500VP6000FT RA BKN027 OVC038 21/16 A2957 RMK AO2 RAB20 P0007 T02060161
07:53
V
21 °C 10 mi - 180° 180° 10 kt METAR KIAG 271153Z 18010KT 10SM SCT038 21/16 A2956 RMK AO2 SLP005 60006 70008 T02110156 10211 20194 58001
06:53
V
21 °C 10 mi 3.100 ft 180° 180° 12 - 19 kt METAR KIAG 271053Z 18012G19KT 10SM OVC031 21/16 A2957 RMK AO2 SLP010 T02110156
05:53
V
21 °C 10 mi 3.800 ft 180° 180° 11 - 23 kt METAR KIAG 270953Z AUTO 18011G23KT 10SM OVC038 21/16 A2957 RMK AO2 SLP008 T02110156
04:53
V
21 °C 10 mi 3.600 ft 190° 190° 15 - 20 kt METAR KIAG 270853Z AUTO 19015G20KT 10SM OVC036 21/16 A2956 RMK AO2 SLP005 60006 T02060161 56019
03:53
V
21 °C 10 mi 4.100 ft 180° 180° 11 kt METAR KIAG 270753Z AUTO 18011KT 10SM BKN041 21/17 A2957 RMK AO2 RAE0658 SLP008 P0000 T02060167
02:53
V
20 °C 6 mi 3.500 ft 170° 170° 12 - 20 kt METAR KIAG 270653Z AUTO 17012G20KT 6SM -RA SCT026 OVC035 20/17 A2960 RMK AO2 SLP017 P0006 T02000172
02:42
I
20 °C 2 mi 3.900 ft 180° 180° 12 - 20 kt METAR KIAG 270642Z AUTO 18012G20KT 2SM RA FEW024 BKN039 OVC080 20/17 A2960 RMK AO2 P0006 T02000172
01:53
V
20 °C 10 mi 4.100 ft 150° 150° 9 kt METAR KIAG 270553Z AUTO 15009KT 10SM -RA SCT030 BKN041 OVC060 20/16 A2962 RMK AO2 RAE05B22 SLP025 P0002 60002 T02000161 10206 20189 57025
Eine Änderung melden